createdAt,value
2019-04-21T00:02:52.534Z,0.00
2019-04-21T00:06:11.970Z,0.00
2019-04-21T00:09:20.428Z,0.00
2019-04-21T00:12:13.974Z,0.00
2019-04-21T00:15:05.021Z,0.00
2019-04-21T00:17:58.412Z,0.00
2019-04-21T00:20:56.218Z,0.00
2019-04-21T00:24:07.653Z,0.00
2019-04-21T00:27:10.942Z,0.00
2019-04-21T00:30:14.130Z,0.00
2019-04-21T00:33:03.314Z,0.00
2019-04-21T00:35:59.844Z,0.00
2019-04-21T00:39:20.943Z,0.00
2019-04-21T00:42:09.810Z,0.00
2019-04-21T00:45:09.570Z,0.00
2019-04-21T00:48:20.669Z,0.00
2019-04-21T00:51:25.085Z,0.00
2019-04-21T00:54:16.759Z,0.00
2019-04-21T00:57:22.075Z,0.00
2019-04-21T01:00:18.666Z,0.00
2019-04-21T01:03:14.510Z,0.00
2019-04-21T01:06:21.256Z,0.00
2019-04-21T01:09:09.574Z,0.00
2019-04-21T01:12:12.718Z,0.00
2019-04-21T01:15:21.159Z,0.00
2019-04-21T01:18:09.251Z,0.00
2019-04-21T01:20:51.736Z,0.00
2019-04-21T01:23:50.851Z,0.00
2019-04-21T01:27:02.038Z,0.00
2019-04-21T01:30:15.019Z,0.00
2019-04-21T01:33:17.360Z,0.00
2019-04-21T01:36:12.294Z,0.00
2019-04-21T01:39:13.180Z,0.00
2019-04-21T01:42:12.633Z,0.00
2019-04-21T01:45:12.877Z,0.00
2019-04-21T01:48:06.229Z,0.00
2019-04-21T01:51:10.074Z,0.00
2019-04-21T01:54:14.665Z,0.00
2019-04-21T01:57:11.443Z,0.00
2019-04-21T01:59:59.760Z,0.00
2019-04-21T02:03:28.523Z,0.00
2019-04-21T02:06:29.106Z,0.00
2019-04-21T02:09:10.091Z,0.00
2019-04-21T02:12:13.418Z,0.00
2019-04-21T02:15:20.134Z,0.00
2019-04-21T02:18:12.084Z,0.00
2019-04-21T02:21:00.143Z,0.00
2019-04-21T02:24:35.129Z,0.00
2019-04-21T02:27:12.787Z,0.00
2019-04-21T02:30:18.577Z,0.00
2019-04-21T02:36:32.806Z,0.00
2019-04-21T02:39:23.194Z,0.00
2019-04-21T02:42:19.972Z,0.00
2019-04-21T02:45:23.587Z,0.00
2019-04-21T02:48:28.667Z,0.00
2019-04-21T02:51:27.993Z,0.00
2019-04-21T02:54:49.782Z,0.00
2019-04-21T03:00:24.573Z,0.00
2019-04-21T03:06:24.992Z,0.00
2019-04-21T03:09:26.241Z,0.00
2019-04-21T03:12:20.615Z,0.00
2019-04-21T03:15:23.472Z,0.00
2019-04-21T03:18:26.601Z,0.00
2019-04-21T03:21:22.233Z,0.00
2019-04-21T03:24:18.448Z,0.00
2019-04-21T03:27:35.551Z,0.00
2019-04-21T03:36:41.053Z,0.00
2019-04-21T03:39:18.020Z,0.00
2019-04-21T03:42:26.895Z,4.00
2019-04-21T03:45:34.793Z,4.00
2019-04-21T03:48:36.159Z,4.00
2019-04-21T03:51:21.021Z,8.00
2019-04-21T03:54:18.183Z,8.00
2019-04-21T04:00:34.701Z,28.00
2019-04-21T04:06:20.568Z,68.00
2019-04-21T04:09:25.724Z,100.00
2019-04-21T04:12:32.813Z,140.00
2019-04-21T04:15:31.118Z,196.00
2019-04-21T04:18:36.255Z,260.00
2019-04-21T04:21:28.809Z,336.00
2019-04-21T04:30:27.639Z,644.00
2019-04-21T04:33:30.337Z,772.00
2019-04-21T04:39:36.302Z,1052.00
2019-04-21T04:48:21.126Z,1508.00
2019-04-21T04:51:22.996Z,1668.00
2019-04-21T04:54:31.640Z,1828.00
2019-04-21T04:57:29.067Z,1984.00
2019-04-21T05:00:26.123Z,2140.00
2019-04-21T05:03:26.356Z,2300.00
2019-04-21T05:06:37.243Z,2456.00
2019-04-21T05:09:25.256Z,2608.00
2019-04-21T05:12:15.759Z,2756.00
2019-04-21T05:15:16.190Z,2904.00
2019-04-21T05:18:21.943Z,3040.00
2019-04-21T05:21:34.284Z,3176.00
2019-04-21T05:24:07.504Z,3300.00
2019-04-21T05:27:03.446Z,3428.00
2019-04-21T05:30:17.793Z,3552.00
2019-04-21T05:33:09.690Z,3676.00
2019-04-21T05:36:09.386Z,3800.00
2019-04-21T05:39:10.692Z,3912.00
2019-04-21T05:42:00.260Z,4040.00
2019-04-21T05:45:27.027Z,4168.00
2019-04-21T05:49:52.485Z,4380.00
2019-04-21T05:52:52.015Z,4508.00
2019-04-21T05:55:58.401Z,4636.00
2019-04-21T05:58:58.085Z,4760.00
2019-04-21T06:02:09.313Z,4880.00
2019-04-21T06:05:05.836Z,5008.00
2019-04-21T06:07:52.673Z,5140.00
2019-04-21T06:11:13.147Z,5280.00
2019-04-21T06:16:58.665Z,6244.00
2019-04-21T06:23:00.889Z,34656.00
2019-04-21T06:26:04.324Z,37792.00
2019-04-21T06:29:08.647Z,38208.00
2019-04-21T06:37:56.485Z,43072.00
2019-04-21T06:40:56.386Z,45600.00
2019-04-21T06:44:12.879Z,47648.00
2019-04-21T06:46:51.670Z,43264.00
2019-04-21T06:49:54.927Z,49440.00
2019-04-21T06:53:00.777Z,50464.00
2019-04-21T06:55:55.975Z,52128.00
2019-04-21T06:58:59.238Z,52224.00
2019-04-21T07:01:56.631Z,53056.00
2019-04-21T07:04:54.638Z,54400.00
2019-04-21T07:08:07.729Z,55776.00
2019-04-21T07:11:00.572Z,56448.00
2019-04-21T07:14:05.664Z,57600.00
2019-04-21T07:16:56.380Z,59936.00
2019-04-21T07:19:57.439Z,61184.00
2019-04-21T07:22:56.513Z,62432.00
2019-04-21T07:25:52.910Z,63392.00
2019-04-21T07:29:02.956Z,63520.00
2019-04-21T07:31:58.726Z,63968.00
2019-04-21T07:35:00.309Z,64576.00
2019-04-21T07:37:53.357Z,64800.00
2019-04-21T07:40:48.488Z,64192.00
2019-04-21T07:43:47.753Z,67008.00
2019-04-21T07:46:45.288Z,65760.00
2019-04-21T07:49:57.411Z,67520.00
2019-04-21T07:53:02.047Z,69824.00
2019-04-21T07:55:34.245Z,72768.00
2019-04-21T07:58:58.287Z,71264.00
2019-04-21T08:01:56.390Z,71168.00
2019-04-21T08:07:59.239Z,75168.00
2019-04-21T08:10:52.268Z,74464.00
2019-04-21T08:13:54.996Z,73152.00
2019-04-21T08:19:49.670Z,73536.00
2019-04-21T08:22:51.614Z,74496.00
2019-04-21T08:25:58.964Z,74112.00
2019-04-21T08:28:58.457Z,75840.00
2019-04-21T08:31:56.144Z,77664.00
2019-04-21T08:35:07.126Z,77792.00
2019-04-21T08:37:49.557Z,78304.00
2019-04-21T08:40:53.702Z,79136.00
2019-04-21T08:43:51.384Z,80224.00
2019-04-21T08:46:52.583Z,80768.00
2019-04-21T08:49:55.467Z,82464.00
2019-04-21T08:52:56.436Z,80896.00
2019-04-21T08:55:55.399Z,84512.00
2019-04-21T08:59:00.717Z,85792.00
2019-04-21T09:02:14.415Z,87328.00
2019-04-21T09:04:52.751Z,88448.00
2019-04-21T09:07:56.070Z,89344.00
2019-04-21T09:10:56.049Z,90080.00
2019-04-21T09:13:50.648Z,90592.00
2019-04-21T09:16:47.278Z,90784.00
2019-04-21T09:19:58.049Z,90784.00
2019-04-21T09:22:50.575Z,92448.00
2019-04-21T09:25:53.032Z,91328.00
2019-04-21T09:28:45.135Z,92704.00
2019-04-21T09:31:37.429Z,94432.00
2019-04-21T09:34:36.986Z,95424.00
2019-04-21T09:37:40.720Z,96288.00
2019-04-21T09:40:37.161Z,93152.00
2019-04-21T09:43:40.052Z,96128.00
2019-04-21T09:46:34.175Z,96768.00
2019-04-21T09:49:33.213Z,95616.00
2019-04-21T09:52:40.906Z,95840.00
2019-04-21T09:55:41.751Z,96384.00
2019-04-21T09:58:38.664Z,96352.00
2019-04-21T10:01:45.047Z,94368.00
2019-04-21T10:04:31.220Z,94400.00
2019-04-21T10:07:35.579Z,92384.00
2019-04-21T10:10:31.923Z,94240.00
2019-04-21T10:13:30.138Z,93696.00
2019-04-21T10:16:30.101Z,95776.00
2019-04-21T10:19:30.089Z,94720.00
2019-04-21T10:22:30.968Z,91744.00
2019-04-21T10:25:30.661Z,95136.00
2019-04-21T10:28:30.986Z,92640.00
2019-04-21T10:31:29.991Z,89536.00
2019-04-21T10:34:29.947Z,89408.00
2019-04-21T10:37:42.892Z,96224.00
2019-04-21T10:40:33.820Z,91200.00
2019-04-21T10:43:31.194Z,95936.00
2019-04-21T10:46:30.799Z,92320.00
2019-04-21T10:49:30.777Z,95840.00
2019-04-21T10:52:32.457Z,94336.00
2019-04-21T10:55:44.440Z,92832.00
2019-04-21T10:58:32.038Z,91872.00
2019-04-21T11:01:29.724Z,93440.00
2019-04-21T11:04:35.356Z,96576.00
2019-04-21T11:07:34.433Z,91040.00
2019-04-21T11:10:31.885Z,90752.00
2019-04-21T11:13:30.728Z,92064.00
2019-04-21T11:16:30.847Z,91584.00
2019-04-21T11:19:30.717Z,91072.00
2019-04-21T11:22:31.015Z,90304.00
2019-04-21T11:25:30.428Z,89952.00
2019-04-21T11:28:29.480Z,93056.00
2019-04-21T11:31:29.478Z,88896.00
2019-04-21T11:34:29.429Z,86240.00
2019-04-21T11:37:30.483Z,87040.00
2019-04-21T11:40:29.694Z,88352.00
2019-04-21T11:43:30.707Z,85152.00
2019-04-21T11:46:30.674Z,83456.00
2019-04-21T11:49:32.277Z,84288.00
2019-04-21T11:52:29.301Z,82912.00
2019-04-21T11:55:35.250Z,79008.00
2019-04-21T11:58:30.225Z,83008.00
2019-04-21T12:01:29.725Z,83936.00
2019-04-21T12:04:29.537Z,80352.00
2019-04-21T12:07:29.374Z,80736.00
2019-04-21T12:10:29.348Z,82208.00
2019-04-21T12:13:30.037Z,80160.00
2019-04-21T12:16:29.069Z,76896.00
2019-04-21T12:19:30.441Z,76800.00
2019-04-21T12:22:37.318Z,74848.00
2019-04-21T12:25:29.229Z,73344.00
2019-04-21T12:28:30.288Z,71168.00
2019-04-21T12:31:29.769Z,72224.00
2019-04-21T12:34:30.182Z,72992.00
2019-04-21T12:37:29.000Z,69472.00
2019-04-21T12:40:28.874Z,70400.00
2019-04-21T12:43:28.805Z,70080.00
2019-04-21T12:46:29.881Z,70624.00
2019-04-21T12:49:29.724Z,68128.00
2019-04-21T12:52:29.463Z,64480.00
2019-04-21T12:55:31.681Z,45952.00
2019-04-21T12:58:31.033Z,59680.00
2019-04-21T13:01:28.668Z,61312.00
2019-04-21T13:04:29.345Z,59968.00
2019-04-21T13:07:28.635Z,56352.00
2019-04-21T13:10:28.566Z,51552.00
2019-04-21T13:13:28.550Z,51680.00
2019-04-21T13:16:29.467Z,43200.00
2019-04-21T13:19:29.357Z,29344.00
2019-04-21T13:22:28.476Z,27744.00
2019-04-21T13:25:29.669Z,28736.00
2019-04-21T13:28:28.415Z,30752.00
2019-04-21T13:31:28.394Z,33760.00
2019-04-21T13:34:28.428Z,42816.00
2019-04-21T13:37:29.678Z,39456.00
2019-04-21T13:40:45.086Z,35520.00
2019-04-21T13:43:30.715Z,31328.00
2019-04-21T13:46:28.914Z,28800.00
2019-04-21T13:49:29.501Z,27936.00
2019-04-21T13:52:28.994Z,26560.00
2019-04-21T13:55:29.619Z,25088.00
2019-04-21T13:58:28.560Z,23872.00
2019-04-21T14:01:28.097Z,22272.00
2019-04-21T14:04:29.454Z,21728.00
2019-04-21T14:07:28.125Z,21312.00
2019-04-21T14:10:29.247Z,20864.00
2019-04-21T14:13:27.980Z,20608.00
2019-04-21T14:16:27.967Z,20192.00
2019-04-21T14:19:27.922Z,19904.00
2019-04-21T14:22:28.343Z,19392.00
2019-04-21T14:25:28.033Z,19232.00
2019-04-21T14:28:28.272Z,19008.00
2019-04-21T14:31:28.437Z,19232.00
2019-04-21T14:34:28.181Z,19392.00
2019-04-21T14:37:28.755Z,19808.00
2019-04-21T14:40:29.853Z,20800.00
2019-04-21T14:43:28.031Z,22208.00
2019-04-21T14:46:29.026Z,23328.00
2019-04-21T14:49:28.986Z,23456.00
2019-04-21T14:52:28.724Z,20864.00
2019-04-21T14:55:27.581Z,19200.00
2019-04-21T14:58:27.541Z,18048.00
2019-04-21T15:01:28.213Z,17120.00
2019-04-21T15:04:28.031Z,16512.00
2019-04-21T15:07:27.609Z,16288.00
2019-04-21T15:10:30.565Z,16160.00
2019-04-21T15:13:28.052Z,16000.00
2019-04-21T15:16:27.371Z,15776.00
2019-04-21T15:19:28.674Z,15616.00
2019-04-21T15:22:28.342Z,15104.00
2019-04-21T15:25:27.966Z,14816.00
2019-04-21T15:28:30.707Z,14488.00
2019-04-21T15:31:32.986Z,14204.00
2019-04-21T15:34:28.206Z,13944.00
2019-04-21T15:37:28.263Z,13716.00
2019-04-21T15:40:37.688Z,13424.00
2019-04-21T15:43:28.638Z,13180.00
2019-04-21T15:46:27.061Z,13000.00
2019-04-21T15:49:33.205Z,12732.00
2019-04-21T15:52:28.218Z,12552.00
2019-04-21T15:55:26.969Z,12404.00
2019-04-21T15:58:28.260Z,12268.00
2019-04-21T16:01:28.135Z,12180.00
2019-04-21T16:04:26.896Z,12068.00
2019-04-21T16:07:26.846Z,12840.00
2019-04-21T16:10:37.635Z,13904.00
2019-04-21T16:13:27.797Z,14148.00
2019-04-21T16:16:29.082Z,12692.00
2019-04-21T16:19:27.201Z,11916.00
2019-04-21T16:22:26.697Z,8640.00
2019-04-21T16:25:26.866Z,8052.00
2019-04-21T16:28:27.054Z,6408.00
2019-04-21T16:31:27.875Z,6120.00
2019-04-21T16:34:39.275Z,6004.00
2019-04-21T16:37:27.837Z,5916.00
2019-04-21T16:40:27.598Z,5820.00
2019-04-21T16:43:27.478Z,5680.00
2019-04-21T16:46:27.464Z,5524.00
2019-04-21T16:49:27.483Z,5312.00
2019-04-21T16:52:27.996Z,5080.00
2019-04-21T16:55:26.783Z,4832.00
2019-04-21T16:58:28.703Z,4532.00
2019-04-21T17:01:29.220Z,4340.00
2019-04-21T17:04:26.556Z,4168.00
2019-04-21T17:07:26.358Z,3904.00
2019-04-21T17:10:26.606Z,3632.00
2019-04-21T17:13:27.216Z,3412.00
2019-04-21T17:17:08.732Z,3264.00
2019-04-21T17:19:31.612Z,3136.00
2019-04-21T17:22:28.002Z,3024.00
2019-04-21T17:25:27.825Z,2892.00
2019-04-21T17:28:26.007Z,2740.00
2019-04-21T17:31:26.668Z,2572.00
2019-04-21T17:34:29.722Z,2392.00
2019-04-21T17:37:27.290Z,2260.00
2019-04-21T17:40:26.358Z,2136.00
2019-04-21T17:43:25.884Z,2012.00
2019-04-21T17:46:36.694Z,1888.00
2019-04-21T17:49:26.790Z,1772.00
2019-04-21T17:52:36.598Z,1652.00
2019-04-21T17:55:31.315Z,1520.00
2019-04-21T17:58:46.285Z,1396.00
2019-04-21T18:01:47.478Z,1272.00
2019-04-21T18:04:49.350Z,1152.00
2019-04-21T18:07:45.406Z,1036.00
2019-04-21T18:10:39.187Z,916.00
2019-04-21T18:13:26.945Z,804.00
2019-04-21T18:16:34.276Z,696.00
2019-04-21T18:19:31.055Z,588.00
2019-04-21T18:24:15.208Z,440.00
2019-04-21T18:27:11.591Z,356.00
2019-04-21T18:30:10.609Z,276.00
2019-04-21T18:33:15.495Z,212.00
2019-04-21T18:36:13.468Z,160.00
2019-04-21T18:39:28.574Z,112.00
2019-04-21T18:42:31.149Z,80.00
2019-04-21T18:48:24.535Z,32.00
2019-04-21T18:51:15.746Z,24.00
2019-04-21T18:54:28.853Z,12.00
2019-04-21T18:57:22.810Z,8.00
2019-04-21T19:00:19.373Z,4.00
2019-04-21T19:03:13.698Z,4.00
2019-04-21T19:06:16.466Z,0.00
2019-04-21T19:09:35.851Z,0.00
2019-04-21T19:12:47.358Z,0.00
2019-04-21T19:15:28.172Z,0.00
2019-04-21T19:18:39.862Z,0.00
2019-04-21T19:21:24.537Z,0.00
2019-04-21T19:24:33.261Z,0.00
2019-04-21T19:27:26.039Z,0.00
2019-04-21T19:30:36.774Z,0.00
2019-04-21T19:33:27.018Z,0.00
2019-04-21T19:36:11.182Z,0.00
2019-04-21T19:39:16.121Z,0.00
2019-04-21T19:42:19.331Z,0.00
2019-04-21T19:45:22.416Z,0.00
2019-04-21T19:48:26.097Z,0.00
2019-04-21T19:51:22.022Z,0.00
2019-04-21T19:54:22.122Z,0.00
2019-04-21T19:57:11.189Z,0.00
2019-04-21T20:00:10.173Z,0.00
2019-04-21T20:03:10.469Z,0.00
2019-04-21T20:06:26.887Z,0.00
2019-04-21T20:09:27.823Z,0.00
2019-04-21T20:12:35.530Z,0.00
2019-04-21T20:15:37.366Z,0.00
2019-04-21T20:18:21.042Z,0.00
2019-04-21T20:21:10.177Z,0.00
2019-04-21T20:24:12.640Z,0.00
2019-04-21T20:27:17.788Z,0.00
2019-04-21T20:30:23.344Z,0.00
2019-04-21T20:33:47.759Z,0.00
2019-04-21T20:36:31.397Z,0.00
2019-04-21T20:39:16.594Z,0.00
2019-04-21T20:42:21.621Z,0.00
2019-04-21T20:48:21.067Z,0.00
2019-04-21T20:51:27.413Z,0.00
2019-04-21T20:54:27.120Z,0.00
2019-04-21T20:57:25.931Z,0.00
2019-04-21T21:00:32.226Z,0.00
2019-04-21T21:03:28.884Z,0.00
2019-04-21T21:06:30.346Z,0.00
2019-04-21T21:09:25.342Z,0.00
2019-04-21T21:15:26.394Z,0.00
2019-04-21T21:21:28.011Z,0.00
2019-04-21T21:24:31.187Z,0.00
2019-04-21T21:27:25.424Z,0.00
2019-04-21T21:30:24.302Z,0.00
2019-04-21T21:33:27.466Z,0.00
2019-04-21T21:36:25.210Z,0.00
2019-04-21T21:39:35.512Z,0.00
2019-04-21T21:42:11.307Z,0.00
2019-04-21T21:45:15.971Z,0.00
2019-04-21T21:48:29.632Z,0.00
2019-04-21T21:51:18.101Z,0.00
2019-04-21T21:54:09.706Z,0.00
2019-04-21T21:57:08.289Z,0.00
2019-04-21T22:00:12.378Z,0.00
2019-04-21T22:03:17.595Z,0.00
2019-04-21T22:06:15.250Z,0.00
2019-04-21T22:09:10.207Z,0.00
2019-04-21T22:12:09.114Z,0.00
2019-04-21T22:15:10.859Z,0.00
2019-04-21T22:18:30.363Z,0.00
2019-04-21T22:21:18.949Z,0.00
2019-04-21T22:24:23.629Z,0.00
2019-04-21T22:27:09.465Z,0.00
2019-04-21T22:30:11.005Z,0.00
2019-04-21T22:33:10.842Z,0.00
2019-04-21T22:36:23.836Z,0.00
2019-04-21T22:39:27.283Z,0.00
2019-04-21T22:42:15.723Z,0.00
2019-04-21T22:45:09.327Z,0.00
2019-04-21T22:48:14.353Z,0.00
2019-04-21T22:51:19.162Z,0.00
2019-04-21T22:54:08.394Z,0.00
2019-04-21T22:57:14.719Z,0.00
2019-04-21T23:00:11.861Z,0.00
2019-04-21T23:03:15.019Z,0.00
2019-04-21T23:06:16.213Z,0.00
2019-04-21T23:09:08.797Z,0.00
2019-04-21T23:12:08.092Z,0.00
2019-04-21T23:15:13.436Z,0.00
2019-04-21T23:18:27.338Z,0.00
2019-04-21T23:21:19.489Z,0.00
2019-04-21T23:24:33.115Z,0.00
2019-04-21T23:27:19.958Z,0.00
2019-04-21T23:30:33.592Z,0.00
2019-04-21T23:33:12.292Z,0.00
2019-04-21T23:36:13.912Z,0.00
2019-04-21T23:39:17.029Z,0.00
2019-04-21T23:42:09.205Z,0.00
2019-04-21T23:45:08.618Z,0.00
2019-04-21T23:48:18.611Z,0.00
2019-04-21T23:51:21.814Z,0.00
2019-04-21T23:54:09.097Z,0.00
2019-04-21T23:57:14.231Z,0.00
